Flight Track Log - Related Links

Times and Time Zones

All times are in EDT time to prevent confusion due to time zone crossing. See the UPS1122 flight status page for this flight to view local times or setup timezone preferences in your user account.

Time Position Orientation Groundspeed Altitude Reporting Facility
EDT Latitude Longitude Course Direction KTS MPH feet Rate Location/Type
Thu 03:46:42 AM 39.8840 -75.1740 270° West 212 244 2,500  Level FlightAware ADS-B
Thu 03:47:52 AM 39.8660 -75.0770 104° East 259 298 5,500 2,640 Climbing FlightAware ADS-B
Thu 03:47:57 AM 39.8640 -75.0700 110° East 260 299 5,800 3,257 Climbing FlightAware ADS-B
Thu 03:49:02 AM 39.8440 -74.9670 104° East 271 312 9,300 3,200 Climbing FlightAware ADS-B
Thu 03:49:12 AM 39.8410 -74.9510 104° East 274 315 9,800 1,725 Climbing FlightAware ADS-B
Thu 03:50:22 AM 39.8340 -74.8140 94° East 360 414 11,600 1,774 Climbing FlightAware ADS-B
Thu 03:51:07 AM 39.8750 -74.7320 57° Northeast 376 433 13,200 2,133 Climbing FlightAware ADS-B
Thu 03:51:52 AM 39.9230 -74.6500 53° Northeast 392 451 14,800 2,118 Climbing FlightAware ADS-B
Thu 03:52:32 AM 39.9840 -74.5910 37° Northeast 403 464 16,200 2,025 Climbing FlightAware ADS-B
Thu 03:53:12 AM 40.0480 -74.5330 35° Northeast 415 478 17,500 1,835 Climbing FlightAware ADS-B
Thu 03:53:57 AM 40.1170 -74.4690 35° Northeast 423 487 18,800 1,694 Climbing FlightAware ADS-B
Thu 03:54:37 AM 40.1810 -74.4100 35° Northeast 432 497 19,900 1,694 Climbing FlightAware ADS-B
Thu 03:55:22 AM 40.2580 -74.3390 35° Northeast 440 506 21,200 1,835 Climbing FlightAware ADS-B
Thu 03:56:02 AM 40.3250 -74.2770 35° Northeast 441 507 22,500 1,350 Climbing FlightAware ADS-B
Thu 03:56:42 AM 40.3890 -74.2170 36° Northeast 441 507 23,000 353 Climbing FlightAware ADS-B
Thu 03:57:27 AM 40.4650 -74.1460 35° Northeast 439 505 23,000  Level FlightAware ADS-B
Thu 03:58:07 AM 40.5310 -74.0840 36° Northeast 439 505 23,000  Level FlightAware ADS-B
Thu 03:58:52 AM 40.6070 -74.0120 36° Northeast 443 510 23,000  Level FlightAware ADS-B
Thu 03:59:32 AM 40.6730 -73.9490 36° Northeast 443 510 23,000  Level FlightAware ADS-B
Thu 04:00:12 AM 40.7410 -73.8850 35° Northeast 442 509 23,000  Level FlightAware ADS-B
Thu 04:00:57 AM 40.8140 -73.8160 36° Northeast 440 506 23,000  Level FlightAware ADS-B
Thu 04:01:37 AM 40.8800 -73.7540 35° Northeast 439 505 23,000  Level FlightAware ADS-B
Thu 04:02:17 AM 40.9460 -73.6910 36° Northeast 436 502 23,000  Level FlightAware ADS-B
Thu 04:03:02 AM 41.0190 -73.6220 35° Northeast 436 502 23,000  Level FlightAware ADS-B
Thu 04:03:42 AM 41.0850 -73.5590 36° Northeast 436 502 23,000 -706 Level FlightAware ADS-B
Thu 04:04:27 AM 41.1590 -73.4890 35° Northeast 425 489 22,000 -2,188 Descending FlightAware ADS-B
Thu 04:05:07 AM 41.2240 -73.4270 36° Northeast 433 498 19,900 -3,741 Descending FlightAware ADS-B
Thu 04:05:52 AM 41.2950 -73.3590 36° Northeast 440 506 16,700 -4,400 Descending FlightAware ADS-B
Thu 04:06:22 AM 41.3410 -73.3150 36° Northeast 424 488 14,400 -1,840 Descending FlightAware ADS-B
Thu 04:07:07 AM 41.4080 -73.2530 35° Northeast 424 488 14,400  Level FlightAware ADS-B
Thu 04:07:57 AM 41.4760 -73.1890 35° Northeast 424 488 14,400 -2,302 Level FlightAware ADS-B
Thu 04:08:33 AM 41.5231 -73.1389 35° Northeast 343 395 11,100 -3,000 Descending Boston Center
Thu 04:09:03 AM 41.5564 -73.1086 34° Northeast 341 392 11,100 -590 Level Boston Center
Thu 04:09:34 AM 41.6006 -73.0647 37° Northeast 317 365 10,500 -1,700 Descending Boston Center
Thu 04:10:03 AM 41.6319 -73.0372 33° Northeast 310 357 9,400 -2,459 Descending Boston Center
Thu 04:10:35 AM 41.6694 -73.0014 36° Northeast 306 352 8,000 -2,300 Descending Boston Center
Thu 04:11:03 AM 41.6925 -72.9767 39° Northeast 305 351 7,100 -2,100 Descending Boston Center
Thu 04:11:35 AM 41.7344 -72.9353 36° Northeast 295 339 5,900 -1,900 Descending Boston Center
Thu 04:12:03 AM 41.7617 -72.9103 34° Northeast 292 336 5,200 -1,672 Descending Boston Center
Thu 04:12:36 AM 41.7931 -72.8800 36° Northeast 266 306 4,200 -1,600 Descending Boston Center
Thu 04:13:03 AM 41.8139 -72.8550 42° Northeast 269 310 3,600 -1,300 Descending Boston Center
Thu 04:13:36 AM 41.8328 -72.8303 44° Northeast 199 229 2,900 -957 Descending Boston Center
Thu 04:14:37 AM 41.8642 -72.7886 45° Northeast 147 169 2,100 -738 Descending Boston Center
Thu 04:15:38 AM 41.8894 -72.7553 44° Northeast 136 157 1,400 -694 Descending Boston Center
Thu 04:16:38 AM 41.9167 -72.7192 45° Northeast 131 151 700 -700 Descending Boston Center
Thu 04:18:00 AM 41.9333 -72.6833 45° Northeast  Level FlightAware Approximate
Thu 04:25:00 AM 41.9392 -72.6834 45° Northeast  Level Estimated
Thu 04:26:00 AM 41.9333 -72.6833 45° Northeast  Level FlightAware Approximate
Thu 04:27:00 AM 41.9392 -72.6834 45° Northeast  Level Estimated
Thu 04:28:00 AM 41.9333 -72.6833 45° Northeast  Level FlightAware Approximate
Thu 04:29:00 AM 41.9392 -72.6834 45° Northeast  Level Estimated
Thu 04:30:00 AM 41.9333 -72.6833 45° Northeast  Level FlightAware Approximate
Thu 04:31:00 AM 41.9392 -72.6834 45° Northeast  Level Estimated

Login

Don't have an account? Register now (free) for customized features, flight alerts, and more!